Time;durP1;ratioP1;P1;durP2;ratioP2;P2;SDS_P1;SDS_P2;PMS_P1;PMS_P2;Temp;Humidity;BMP_temperature;BMP_pressure;BME280_temperature;BME280_humidity;BME280_pressure;Samples;Min_cycle;Max_cycle;Signal;HPM_P1;HPM_P2
2023/06/13 00:01:36;;;;;;;13.02;6.22;;;;;;;18.29;100.00;101020.88;5015367;28;20053;-75
2023/06/13 00:04:03;;;;;;;12.75;5.20;;;;;;;18.27;100.00;101021.34;5011996;28;20169;-72
2023/06/13 00:06:30;;;;;;;11.63;5.63;;;;;;;18.20;100.00;101021.63;5014676;28;20237;-75
2023/06/13 00:08:57;;;;;;;11.75;5.38;;;;;;;18.16;100.00;101023.00;5006050;28;20049;-76
2023/06/13 00:11:24;;;;;;;13.57;6.20;;;;;;;18.09;100.00;101018.44;4999856;28;20079;-75
2023/06/13 00:13:51;;;;;;;12.23;6.13;;;;;;;18.07;100.00;101022.97;5009455;28;20096;-74
2023/06/13 00:16:25;;;;;;;11.98;5.82;;;;;;;17.99;100.00;101025.25;5009730;28;20108;-74
2023/06/13 00:18:52;;;;;;;13.13;6.07;;;;;;;17.95;100.00;101029.47;5015058;28;20107;-74
2023/06/13 00:21:19;;;;;;;12.63;5.70;;;;;;;17.89;100.00;101032.03;5017178;28;20057;-75
2023/06/13 00:23:45;;;;;;;12.82;5.93;;;;;;;17.80;100.00;101019.97;5009697;28;20073;-73
2023/06/13 00:26:12;;;;;;;12.73;6.00;;;;;;;17.70;100.00;101021.16;4999439;28;20636;-74
2023/06/13 00:28:38;;;;;;;15.40;6.40;;;;;;;17.69;100.00;101019.59;5006309;28;20096;-74
2023/06/13 00:31:05;;;;;;;13.70;6.40;;;;;;;17.65;100.00;101021.75;5018700;28;20148;-76
2023/06/13 00:33:31;;;;;;;18.20;6.28;;;;;;;17.64;100.00;101018.16;5012559;28;20054;-73
2023/06/13 00:35:58;;;;;;;15.90;7.07;;;;;;;17.59;100.00;101018.75;5010927;28;20428;-74
2023/06/13 00:38:25;;;;;;;15.23;6.40;;;;;;;17.57;100.00;101026.06;5007052;28;20058;-74
2023/06/13 00:40:51;;;;;;;14.07;6.43;;;;;;;17.48;100.00;101018.34;5014470;28;20049;-75
2023/06/13 00:43:18;;;;;;;13.82;5.80;;;;;;;17.45;100.00;101021.31;5012070;28;20538;-75
2023/06/13 00:45:44;;;;;;;16.20;5.75;;;;;;;17.41;100.00;101013.00;5009659;28;20468;-73
2023/06/13 00:48:11;;;;;;;12.52;5.97;;;;;;;17.31;100.00;101011.34;5015222;28;20050;-72
2023/06/13 00:50:44;;;;;;;13.63;5.80;;;;;;;17.25;100.00;101011.16;5013666;28;20420;-73
2023/06/13 00:53:17;;;;;;;14.07;5.63;;;;;;;17.19;100.00;101009.41;5012679;28;20137;-69
2023/06/13 00:55:46;;;;;;;14.57;6.75;;;;;;;17.11;100.00;101005.25;5012921;28;20088;-73
2023/06/13 00:58:13;;;;;;;14.52;6.00;;;;;;;17.05;100.00;101001.44;5012526;28;20085;-74
2023/06/13 01:00:43;;;;;;;14.20;6.20;;;;;;;16.97;100.00;101000.91;5013855;28;20052;-75
2023/06/13 01:03:15;;;;;;;12.82;7.07;;;;;;;16.93;100.00;100999.44;5011941;28;20062;-74
2023/06/13 01:05:43;;;;;;;13.90;6.00;;;;;;;16.85;100.00;100998.91;5014821;28;20049;-73
2023/06/13 01:08:16;;;;;;;13.18;6.38;;;;;;;16.79;100.00;100991.53;4999902;28;20580;-76
2023/06/13 01:10:47;;;;;;;15.68;6.47;;;;;;;16.81;100.00;100978.59;5010320;28;20111;-72
2023/06/13 01:13:39;;;;;;;16.08;7.28;;;;;;;16.74;100.00;100980.84;5006054;28;20856;-76
2023/06/13 01:16:09;;;;;;;16.08;6.25;;;;;;;16.67;100.00;100984.69;5008398;28;20508;-72
2023/06/13 01:18:41;;;;;;;15.00;6.53;;;;;;;16.52;100.00;100986.44;5010526;28;20139;-72
2023/06/13 01:21:09;;;;;;;12.23;5.90;;;;;;;16.44;100.00;100975.91;5011826;28;20559;-73
2023/06/13 01:23:43;;;;;;;12.07;6.25;;;;;;;16.36;100.00;100977.34;5013834;28;20050;-75
2023/06/13 01:26:22;;;;;;;14.20;6.35;;;;;;;16.37;100.00;100984.56;5014391;28;20057;-70
2023/06/13 01:28:51;;;;;;;16.75;6.63;;;;;;;16.27;100.00;100975.22;5008907;28;20115;-73
2023/06/13 01:31:22;;;;;;;14.15;6.20;;;;;;;16.28;100.00;100971.19;4996813;28;20080;-72
2023/06/13 01:33:51;;;;;;;14.95;6.97;;;;;;;16.33;100.00;100973.44;5007459;28;20056;-73
2023/06/13 01:36:17;;;;;;;14.27;6.93;;;;;;;16.38;100.00;100981.28;5009804;28;20115;-74
2023/06/13 01:38:44;;;;;;;14.40;7.03;;;;;;;16.35;100.00;100970.97;5012515;28;20053;-69
2023/06/13 01:41:11;;;;;;;14.48;6.57;;;;;;;16.35;100.00;100970.97;5013087;28;20065;-73
2023/06/13 01:43:38;;;;;;;15.63;6.97;;;;;;;16.29;100.00;100964.34;5009932;28;20054;-74
2023/06/13 01:46:23;;;;;;;13.07;6.28;;;;;;;16.20;100.00;100958.59;5012539;28;20803;-74
2023/06/13 01:49:12;;;;;;;13.73;6.35;;;;;;;16.24;100.00;100964.09;5011460;28;20050;-75
2023/06/13 01:51:52;;;;;;;15.15;6.55;;;;;;;16.06;100.00;100964.66;5007487;28;20133;-76
2023/06/13 01:54:21;;;;;;;14.68;6.90;;;;;;;16.06;100.00;100964.66;5018074;28;20582;-71
2023/06/13 01:56:53;;;;;;;15.57;6.80;;;;;;;15.94;100.00;100962.66;5007906;28;20520;-74
2023/06/13 01:59:25;;;;;;;14.25;7.00;;;;;;;15.81;100.00;100970.28;5009887;28;20471;-75
2023/06/13 02:01:53;;;;;;;12.80;6.30;;;;;;;15.88;100.00;100963.66;5018014;28;20064;-73
2023/06/13 02:04:20;;;;;;;16.92;6.90;;;;;;;15.99;100.00;100975.31;4999606;28;20429;-75
2023/06/13 02:06:47;;;;;;;17.13;6.75;;;;;;;16.05;100.00;100971.50;5005361;28;20124;-73
2023/06/13 02:09:13;;;;;;;12.45;6.25;;;;;;;16.04;100.00;100969.16;5013125;28;20130;-74
2023/06/13 02:11:40;;;;;;;13.73;6.95;;;;;;;16.06;100.00;100970.28;5005000;28;20814;-74
2023/06/13 02:14:07;;;;;;;14.02;6.50;;;;;;;16.06;100.00;100970.28;5000818;28;20104;-73
2023/06/13 02:16:34;;;;;;;14.18;6.68;;;;;;;15.97;100.00;100967.34;5002208;28;20095;-75
2023/06/13 02:19:01;;;;;;;15.38;6.50;;;;;;;15.95;100.00;100964.22;5006869;28;20110;-71
2023/06/13 02:21:29;;;;;;;15.18;6.70;;;;;;;15.95;100.00;100963.44;5006496;28;20053;-75
2023/06/13 02:23:56;;;;;;;19.58;6.78;;;;;;;15.92;100.00;100951.09;5006948;28;20619;-72
2023/06/13 02:26:23;;;;;;;15.40;6.95;;;;;;;15.95;100.00;100963.44;5007414;28;20085;-72
2023/06/13 02:28:50;;;;;;;14.48;7.05;;;;;;;15.93;100.00;100963.09;5010171;28;20054;-75
2023/06/13 02:31:17;;;;;;;16.20;6.95;;;;;;;15.97;100.00;100969.38;5012117;28;20053;-72
2023/06/13 02:33:43;;;;;;;14.45;6.15;;;;;;;15.99;100.00;100964.91;5007088;28;20050;-69
2023/06/13 02:36:11;;;;;;;15.07;6.05;;;;;;;16.00;100.00;100960.84;5000637;28;20057;-74
2023/06/13 02:38:38;;;;;;;12.50;6.10;;;;;;;16.04;100.00;100967.13;5013643;28;20042;-72
2023/06/13 02:41:04;;;;;;;14.82;7.28;;;;;;;16.00;100.00;100965.69;5015335;28;20641;-71
2023/06/13 02:43:31;;;;;;;14.48;6.78;;;;;;;16.03;100.00;100973.97;5010401;28;20053;-73
2023/06/13 02:45:58;;;;;;;15.05;6.78;;;;;;;16.01;100.00;100961.63;5013207;28;20104;-71
2023/06/13 02:48:25;;;;;;;14.13;6.82;;;;;;;16.04;100.00;100972.72;5008958;28;20789;-72
2023/06/13 02:50:53;;;;;;;18.35;7.15;;;;;;;16.06;100.00;100978.69;5019729;28;20100;-72
2023/06/13 02:53:20;;;;;;;14.27;6.80;;;;;;;16.03;100.00;100973.97;5019484;28;20080;-72
2023/06/13 02:55:48;;;;;;;16.15;7.55;;;;;;;16.00;100.00;100971.28;5015426;28;20054;-72
2023/06/13 02:58:14;;;;;;;15.27;7.50;;;;;;;16.00;100.00;100960.06;5010281;28;20058;-71
2023/06/13 03:00:41;;;;;;;17.65;6.82;;;;;;;16.01;100.00;100962.44;5013553;28;20496;-71
2023/06/13 03:03:08;;;;;;;16.35;7.47;;;;;;;15.99;100.00;100969.69;5015048;28;20056;-72
2023/06/13 03:05:36;;;;;;;13.82;6.85;;;;;;;15.96;100.00;100970.59;5007765;28;20867;-72
2023/06/13 03:08:04;;;;;;;15.70;7.43;;;;;;;15.93;100.00;100972.28;5011937;28;20494;-72
2023/06/13 03:10:32;;;;;;;16.15;7.10;;;;;;;15.91;100.00;100980.38;5013672;28;20084;-74
2023/06/13 03:12:59;;;;;;;16.80;7.75;;;;;;;15.89;100.00;100974.41;5018542;28;20048;-70
2023/06/13 03:15:27;;;;;;;15.63;7.97;;;;;;;15.88;100.00;100984.06;5016079;28;20144;-72
2023/06/13 03:17:53;;;;;;;15.02;7.30;;;;;;;15.86;100.00;100992.13;5015841;28;20100;-72
2023/06/13 03:20:23;;;;;;;15.20;7.78;;;;;;;15.82;100.00;100971.03;5011117;28;20053;-72
2023/06/13 03:22:53;;;;;;;18.67;7.28;;;;;;;15.78;100.00;100971.16;5003651;28;20041;-72
2023/06/13 03:25:20;;;;;;;15.82;7.22;;;;;;;15.84;100.00;100975.00;5007887;28;20090;-73
2023/06/13 03:27:47;;;;;;;15.10;7.40;;;;;;;15.83;100.00;100990.22;5011023;28;20115;-72
2023/06/13 03:30:14;;;;;;;15.15;6.95;;;;;;;15.82;100.00;100985.06;5014794;28;20054;-72
2023/06/13 03:32:41;;;;;;;15.85;7.65;;;;;;;15.79;100.00;100980.34;5011302;28;20077;-68
2023/06/13 03:35:08;;;;;;;18.70;7.80;;;;;;;15.80;100.00;100985.50;5011384;28;20050;-73
2023/06/13 03:37:34;;;;;;;15.40;7.65;;;;;;;15.77;100.00;100980.81;5012060;28;20104;-72
2023/06/13 03:40:01;;;;;;;15.77;7.30;;;;;;;15.68;100.00;100988.28;5008785;28;20070;-69
2023/06/13 03:42:27;;;;;;;16.48;7.70;;;;;;;15.64;100.00;100982.00;5014020;28;20091;-73
2023/06/13 03:44:54;;;;;;;20.42;7.78;;;;;;;15.65;100.00;100991.97;5012153;28;20057;-73
2023/06/13 03:47:20;;;;;;;14.85;7.63;;;;;;;15.66;100.00;100987.97;5009169;28;20133;-72
2023/06/13 03:49:47;;;;;;;20.23;8.05;;;;;;;15.63;100.00;100984.03;5014119;28;20085;-73
2023/06/13 03:52:14;;;;;;;18.50;7.47;;;;;;;15.62;100.00;100990.88;5017098;28;20107;-71
2023/06/13 03:54:40;;;;;;;16.88;7.95;;;;;;;15.60;100.00;100987.75;5003273;28;20193;-74
2023/06/13 03:57:07;;;;;;;13.20;7.15;;;;;;;15.57;100.00;100987.84;5007466;28;20058;-72
2023/06/13 03:59:34;;;;;;;20.85;7.80;;;;;;;15.62;100.00;100990.06;5007290;28;20133;-72
2023/06/13 04:02:02;;;;;;;14.45;7.28;;;;;;;15.62;100.00;100985.25;5011166;28;20053;-72
2023/06/13 04:04:28;;;;;;;16.17;7.30;;;;;;;15.63;100.00;100991.66;5008327;28;20194;-76
2023/06/13 04:06:55;;;;;;;19.05;8.23;;;;;;;15.65;100.00;100989.19;5017757;28;20057;-72
2023/06/13 04:09:23;;;;;;;20.55;7.75;;;;;;;15.62;100.00;100993.66;5013795;28;20049;-72
2023/06/13 04:11:49;;;;;;;16.40;7.93;;;;;;;15.60;100.00;100986.94;5010107;28;20081;-72
2023/06/13 04:14:16;;;;;;;16.33;7.68;;;;;;;15.55;100.00;100993.88;5011154;28;20084;-71
2023/06/13 04:16:43;;;;;;;20.48;8.25;;;;;;;15.63;100.00;100995.22;5009967;28;20057;-73
2023/06/13 04:19:10;;;;;;;16.27;7.90;;;;;;;15.58;100.00;100990.19;5023019;28;20473;-71
2023/06/13 04:21:38;;;;;;;17.15;7.72;;;;;;;15.62;100.00;101006.88;5015201;28;20053;-74
2023/06/13 04:24:05;;;;;;;16.33;7.18;;;;;;;15.58;100.00;100995.78;5014364;28;20081;-75
2023/06/13 04:26:32;;;;;;;16.25;7.75;;;;;;;15.62;100.00;100999.28;5009150;28;20045;-72
2023/06/13 04:29:01;;;;;;;18.35;8.27;;;;;;;15.65;100.00;101006.00;5006895;28;20046;-74
2023/06/13 04:31:34;;;;;;;15.30;7.70;;;;;;;15.71;100.00;101007.03;5007430;28;20084;-75
2023/06/13 04:34:03;;;;;;;16.58;7.70;;;;;;;15.74;100.00;101006.94;5014563;28;20050;-73
2023/06/13 04:36:33;;;;;;;17.80;8.27;;;;;;;15.78;100.00;100998.41;5005870;28;20049;-74
2023/06/13 04:39:06;;;;;;;17.10;8.18;;;;;;;15.85;100.00;101001.78;5003566;28;20100;-71
2023/06/13 04:41:34;;;;;;;15.38;7.00;;;;;;;15.92;100.00;101009.19;5010361;28;20060;-73
2023/06/13 04:44:19;;;;;;;16.02;7.82;;;;;;;15.93;100.00;101005.94;5007023;28;20049;-72
2023/06/13 04:46:47;;;;;;;18.40;8.52;;;;;;;15.99;100.00;100998.53;4998768;28;20054;-74
2023/06/13 04:49:15;;;;;;;17.45;7.80;;;;;;;16.06;100.00;101003.13;5009671;28;20471;-71
2023/06/13 04:51:42;;;;;;;15.13;7.45;;;;;;;16.10;100.00;101001.78;5002822;28;20046;-72
2023/06/13 04:54:09;;;;;;;17.70;8.13;;;;;;;16.19;100.00;101001.13;5005211;28;20053;-74
2023/06/13 04:56:37;;;;;;;19.15;8.57;;;;;;;16.18;100.00;101005.97;5007330;28;20053;-74
2023/06/13 04:59:07;;;;;;;16.25;8.00;;;;;;;16.30;100.00;101005.19;5008236;28;20054;-73
2023/06/13 05:01:33;;;;;;;16.38;7.90;;;;;;;16.37;100.00;101019.00;5010725;28;20045;-73
2023/06/13 05:04:00;;;;;;;17.95;8.73;;;;;;;16.41;100.00;101019.66;5006659;28;20045;-74
2023/06/13 05:06:29;;;;;;;18.45;8.57;;;;;;;16.46;100.00;101027.53;5010228;28;20053;-75
2023/06/13 05:08:56;;;;;;;18.20;8.48;;;;;;;16.52;100.00;101025.72;5005475;28;20073;-68
2023/06/13 05:11:23;;;;;;;25.25;8.40;;;;;;;16.60;100.00;101031.88;5009895;28;20523;-73
2023/06/13 05:13:50;;;;;;;16.00;7.60;;;;;;;16.65;100.00;101026.47;5019177;28;20744;-71
2023/06/13 05:16:17;;;;;;;17.83;8.93;;;;;;;16.71;100.00;101033.09;5012646;28;20144;-72
2023/06/13 05:18:44;;;;;;;18.42;8.20;;;;;;;16.78;100.00;101032.09;5001709;28;20500;-73
2023/06/13 05:21:16;;;;;;;15.98;8.30;;;;;;;16.82;100.00;101022.31;5012921;28;20493;-72
2023/06/13 05:23:43;;;;;;;15.75;8.07;;;;;;;16.86;100.00;101037.00;5006769;28;20053;-74
2023/06/13 05:26:10;;;;;;;19.27;8.40;;;;;;;16.91;100.00;101032.84;5023867;28;20140;-74
2023/06/13 05:28:37;;;;;;;20.42;8.50;;;;;;;16.98;100.00;101035.41;5009775;28;20050;-72
2023/06/13 05:31:03;;;;;;;19.08;8.38;;;;;;;17.07;100.00;101039.06;5006336;28;20057;-70
2023/06/13 05:33:31;;;;;;;15.63;7.80;;;;;;;17.15;100.00;101048.06;5005254;28;20061;-75
2023/06/13 05:35:57;;;;;;;15.90;7.45;;;;;;;17.20;100.00;101048.28;5010962;28;20508;-73
2023/06/13 05:38:24;;;;;;;18.17;8.40;;;;;;;17.27;100.00;101050.03;5009592;28;20530;-73
2023/06/13 05:40:51;;;;;;;18.42;7.82;;;;;;;17.33;100.00;101042.59;5007948;28;20060;-73
2023/06/13 05:43:20;;;;;;;18.98;8.48;;;;;;;17.40;100.00;101056.41;5004825;28;20157;-74
2023/06/13 05:45:48;;;;;;;16.48;7.80;;;;;;;17.47;100.00;101049.72;4999742;28;20049;-71
2023/06/13 05:48:15;;;;;;;20.10;8.55;;;;;;;17.52;100.00;101051.97;5018595;28;20110;-73
2023/06/13 05:50:41;;;;;;;18.55;7.90;;;;;;;17.57;100.00;101063.41;5008758;28;20053;-74
2023/06/13 05:53:10;;;;;;;17.05;8.00;;;;;;;17.65;100.00;101063.94;5011592;28;20049;-72
2023/06/13 05:55:36;;;;;;;18.67;8.25;;;;;;;17.69;100.00;101054.13;5006487;28;20076;-74
2023/06/13 05:58:03;;;;;;;17.48;7.80;;;;;;;17.75;100.00;101060.72;5009465;28;20062;-73
2023/06/13 06:00:29;;;;;;;14.93;8.07;;;;;;;17.82;100.00;101063.25;5004804;28;20097;-70
2023/06/13 06:02:58;;;;;;;16.48;8.20;;;;;;;17.87;100.00;101059.06;5014348;28;20049;-71
2023/06/13 06:05:25;;;;;;;20.92;8.93;;;;;;;17.96;100.00;101056.34;5008295;28;20049;-73
2023/06/13 06:07:51;;;;;;;18.58;8.35;;;;;;;18.04;100.00;101055.63;5008180;28;20056;-69
2023/06/13 06:10:18;;;;;;;18.50;8.43;;;;;;;18.14;100.00;101062.06;5006828;28;20045;-72
2023/06/13 06:12:44;;;;;;;17.95;8.13;;;;;;;18.25;100.00;101060.41;5014075;28;20053;-70
2023/06/13 06:15:11;;;;;;;16.63;7.82;;;;;;;18.34;100.00;101056.84;5012655;28;20116;-72
2023/06/13 06:17:38;;;;;;;17.77;7.97;;;;;;;18.44;100.00;101061.28;5005626;28;20085;-72
2023/06/13 06:20:06;;;;;;;16.10;8.25;;;;;;;18.51;100.00;101060.97;5011745;28;20096;-71
2023/06/13 06:22:35;;;;;;;18.63;9.18;;;;;;;18.56;100.00;101068.84;5010241;28;20519;-69
2023/06/13 06:25:01;;;;;;;16.45;7.18;;;;;;;18.65;100.00;101063.22;5013365;28;20130;-70
2023/06/13 06:27:28;;;;;;;14.85;7.18;;;;;;;18.74;100.00;101068.91;5009940;28;20183;-73
2023/06/13 06:29:54;;;;;;;13.73;7.07;;;;;;;18.85;100.00;101072.06;5011756;28;20041;-72
2023/06/13 06:32:21;;;;;;;18.92;7.50;;;;;;;18.92;100.00;101072.56;5019220;28;20064;-70
2023/06/13 06:34:48;;;;;;;19.63;7.75;;;;;;;19.05;100.00;101072.41;5005281;28;20050;-72
2023/06/13 06:37:14;;;;;;;16.48;7.35;;;;;;;19.15;100.00;101071.97;5011056;28;20127;-77
2023/06/13 06:39:41;;;;;;;17.98;7.22;;;;;;;19.23;100.00;101078.06;5008925;28;20045;-76
2023/06/13 06:42:07;;;;;;;14.63;6.95;;;;;;;19.29;100.00;101068.53;5008925;28;20133;-76
2023/06/13 06:44:34;;;;;;;17.92;6.68;;;;;;;19.40;100.00;101070.88;5011340;28;20103;-78
2023/06/13 06:47:10;;;;;;;12.85;6.40;;;;;;;19.50;100.00;101070.44;5008092;28;20513;-74
2023/06/13 06:49:37;;;;;;;14.60;6.45;;;;;;;19.62;100.00;101068.72;5008763;28;20077;-74
2023/06/13 06:52:04;;;;;;;14.52;7.28;;;;;;;19.74;100.00;101077.00;5005327;28;20061;-74
2023/06/13 06:54:31;;;;;;;12.95;6.30;;;;;;;19.81;100.00;101072.28;5005720;28;20505;-74
2023/06/13 06:56:58;;;;;;;14.23;6.13;;;;;;;19.89;100.00;101079.97;5006537;28;20054;-76
2023/06/13 06:59:25;;;;;;;14.88;6.63;;;;;;;20.01;100.00;101076.16;5004570;28;20603;-76
2023/06/13 07:01:52;;;;;;;13.85;6.10;;;;;;;20.13;100.00;101074.41;5007070;28;20084;-75
2023/06/13 07:04:18;;;;;;;19.73;6.47;;;;;;;20.23;100.00;101078.81;5004806;28;20073;-72
2023/06/13 07:06:45;;;;;;;16.23;7.13;;;;;;;20.30;100.00;101062.31;5004268;28;20057;-74
2023/06/13 07:09:13;;;;;;;14.45;7.63;;;;;;;20.38;100.00;101071.22;5005173;28;20136;-73
2023/06/13 07:11:39;;;;;;;13.27;6.30;;;;;;;20.49;100.00;101068.66;5001798;28;20107;-73
2023/06/13 07:14:07;;;;;;;12.75;5.97;;;;;;;20.53;100.00;101072.09;5006444;28;20488;-77
2023/06/13 07:16:33;;;;;;;17.65;6.10;;;;;;;20.61;100.00;101067.66;5013087;28;20110;-78
2023/06/13 07:19:00;;;;;;;16.45;6.43;;;;;;;20.72;100.00;101074.34;5006576;28;20081;-76
2023/06/13 07:21:27;;;;;;;15.02;7.88;;;;;;;20.78;100.00;101066.00;5011701;28;20519;-76
2023/06/13 07:23:53;;;;;;;15.43;6.72;;;;;;;20.90;100.00;101062.97;5014485;28;20827;-75
2023/06/13 07:26:33;;;;;;;16.98;6.63;;;;;;;21.00;100.00;101067.28;5009318;28;20073;-75
2023/06/13 07:29:00;;;;;;;13.50;6.35;;;;;;;21.10;100.00;101065.97;5005279;28;20049;-78
2023/06/13 07:31:27;;;;;;;16.00;6.25;;;;;;;21.18;100.00;101061.53;5007523;28;20532;-75
2023/06/13 07:33:54;;;;;;;16.67;6.80;;;;;;;21.35;100.00;101073.19;5011478;28;20052;-73
2023/06/13 07:36:20;;;;;;;13.68;5.72;;;;;;;21.43;100.00;101069.50;5009682;28;20153;-76
2023/06/13 07:38:47;;;;;;;15.30;6.63;;;;;;;21.52;100.00;101077.91;5016403;28;20054;-74
2023/06/13 07:41:14;;;;;;;12.52;6.10;;;;;;;21.60;99.10;101073.44;5007438;28;20097;-73
2023/06/13 07:43:40;;;;;;;12.93;5.93;;;;;;;21.67;95.65;101078.75;5009155;28;20061;-78
2023/06/13 07:46:07;;;;;;;11.88;5.45;;;;;;;21.69;92.56;101078.25;5010821;28;20520;-74
2023/06/13 07:48:33;;;;;;;17.83;6.25;;;;;;;21.73;92.65;101085.28;5016104;28;20057;-77
2023/06/13 07:51:00;;;;;;;13.35;5.55;;;;;;;21.72;88.55;101078.06;5005100;28;20068;-76
2023/06/13 07:53:26;;;;;;;10.18;4.82;;;;;;;21.78;86.72;101076.09;5003750;28;20127;-81
2023/06/13 07:55:55;;;;;;;12.02;5.40;;;;;;;21.88;87.10;101076.81;5019890;28;20454;-77
2023/06/13 07:58:22;;;;;;;9.93;4.88;;;;;;;21.94;84.26;101074.88;5018264;28;20504;-77
2023/06/13 08:00:48;;;;;;;11.60;5.20;;;;;;;22.05;86.69;101069.41;5014718;28;20104;-76
2023/06/13 08:03:15;;;;;;;13.93;6.10;;;;;;;22.13;85.11;101068.53;5008076;28;20057;-79
2023/06/13 08:05:42;;;;;;;15.60;6.38;;;;;;;22.23;83.37;101068.41;5008758;28;20516;-77
2023/06/13 08:08:09;;;;;;;11.90;5.93;;;;;;;22.24;81.82;101055.81;5016154;28;20049;-75
2023/06/13 08:10:35;;;;;;;10.43;4.70;;;;;;;22.35;81.92;101061.69;5012571;28;20483;-77
2023/06/13 08:13:02;;;;;;;10.23;5.22;;;;;;;22.42;82.24;101062.06;5010401;28;20053;-76
2023/06/13 08:15:29;;;;;;;9.57;5.07;;;;;;;22.50;82.19;101063.22;5012418;28;20145;-75
2023/06/13 08:17:57;;;;;;;13.20;5.85;;;;;;;22.62;81.85;101061.34;5017104;28;20049;-77
2023/06/13 08:20:24;;;;;;;14.38;5.80;;;;;;;22.67;80.69;101054.97;5006774;28;20080;-78
2023/06/13 08:22:51;;;;;;;11.43;5.25;;;;;;;22.81;80.93;101054.16;5015961;28;20060;-75
2023/06/13 08:25:18;;;;;;;16.25;5.80;;;;;;;22.90;79.29;101056.84;5014290;28;20053;-79
2023/06/13 08:27:44;;;;;;;13.63;5.43;;;;;;;22.94;78.31;101052.53;5009866;28;20073;-78
2023/06/13 08:30:11;;;;;;;9.45;4.63;;;;;;;22.90;74.88;101056.84;5013673;28;20127;-78
2023/06/13 08:32:41;;;;;;;10.88;5.05;;;;;;;22.97;74.53;101057.25;5007694;28;20476;-81
2023/06/13 08:35:08;;;;;;;15.40;5.40;;;;;;;22.99;69.09;101057.53;5014173;28;20077;-76
2023/06/13 08:37:34;;;;;;;10.82;5.50;;;;;;;22.99;69.50;101059.59;5009599;28;20081;-75
2023/06/13 08:40:04;;;;;;;12.05;5.30;;;;;;;22.94;69.55;101057.41;5008707;28;20045;-74
2023/06/13 08:42:31;;;;;;;10.00;5.10;;;;;;;23.08;70.73;101050.94;5007004;28;20104;-75
2023/06/13 08:44:59;;;;;;;13.52;5.30;;;;;;;23.24;70.78;101050.34;5005900;28;20045;-77
2023/06/13 08:47:26;;;;;;;12.05;5.30;;;;;;;23.40;69.61;101055.44;5007998;28;20078;-75
2023/06/13 08:50:06;;;;;;;9.40;4.75;;;;;;;23.50;69.09;101051.97;5012949;28;20096;-74
2023/06/13 08:52:42;;;;;;;15.15;5.22;;;;;;;23.63;64.78;101051.63;5007190;28;20050;-74
2023/06/13 08:55:13;;;;;;;12.80;4.82;;;;;;;23.70;64.89;101049.09;5005519;28;20145;-77
2023/06/13 08:58:02;;;;;;;10.63;5.40;;;;;;;23.79;64.61;101040.44;5020542;28;20053;-73
2023/06/13 09:00:33;;;;;;;12.07;5.32;;;;;;;23.82;64.89;101036.59;5020385;28;20141;-76
2023/06/13 09:03:03;;;;;;;11.32;5.30;;;;;;;23.92;65.85;101037.97;5011620;28;20168;-74
2023/06/13 09:05:31;;;;;;;10.70;5.28;;;;;;;23.97;65.72;101036.47;5011810;28;20055;-75
2023/06/13 09:07:58;;;;;;;14.07;5.20;;;;;;;24.02;64.36;101038.56;5009070;28;20491;-84
2023/06/13 09:10:45;;;;;;;15.18;5.47;;;;;;;24.12;63.89;101022.91;5007720;28;20053;-78
2023/06/13 09:13:15;;;;;;;11.80;5.47;;;;;;;24.19;64.01;101028.13;5004913;28;20501;-77
2023/06/13 09:15:44;;;;;;;10.93;5.00;;;;;;;24.25;65.23;101031.81;5010481;28;20049;-79
2023/06/13 09:18:11;;;;;;;10.43;5.03;;;;;;;24.22;61.45;101027.13;5006407;28;20472;-78
2023/06/13 09:20:37;;;;;;;10.55;4.80;;;;;;;24.27;62.07;101023.59;5005316;28;20045;-80
2023/06/13 09:23:04;;;;;;;14.25;5.32;;;;;;;24.24;60.55;101031.03;5030306;28;20543;-75
2023/06/13 09:25:35;;;;;;;9.93;5.03;;;;;;;24.40;63.33;101033.22;5035924;28;20534;-74
2023/06/13 09:28:29;;;;;;;12.15;5.05;;;;;;;24.42;60.64;101027.81;5014274;28;20140;-76
2023/06/13 09:30:56;;;;;;;10.25;4.68;;;;;;;24.42;62.53;101024.19;5011353;28;20060;-76
2023/06/13 09:33:26;;;;;;;13.52;5.10;;;;;;;24.48;59.21;101028.63;5017021;28;20058;-74
2023/06/13 09:35:53;;;;;;;9.30;4.65;;;;;;;24.56;58.75;101014.72;5015530;28;20065;-76
2023/06/13 09:38:23;;;;;;;12.63;5.28;;;;;;;24.50;58.95;101011.06;5011729;28;20632;-75
2023/06/13 09:40:52;;;;;;;12.52;5.60;;;;;;;24.59;58.20;101012.94;5011019;28;20092;-75
2023/06/13 09:43:20;;;;;;;22.60;5.47;;;;;;;24.68;59.85;101005.00;5013861;28;20063;-75
2023/06/13 09:45:51;;;;;;;15.82;5.15;;;;;;;24.85;58.42;101011.56;5011815;28;20046;-73
2023/06/13 09:48:18;;;;;;;11.75;5.15;;;;;;;24.89;56.58;101002.78;5016086;28;20049;-77
2023/06/13 09:50:45;;;;;;;10.30;5.00;;;;;;;24.97;57.84;101010.31;5006324;28;20050;-72
2023/06/13 09:53:12;;;;;;;13.07;5.07;;;;;;;25.06;57.79;101012.97;5008691;28;20447;-72
2023/06/13 09:55:38;;;;;;;16.23;5.82;;;;;;;25.09;55.20;101005.47;5003384;28;20049;-73
2023/06/13 09:58:05;;;;;;;10.93;5.10;;;;;;;24.98;53.62;101000.53;5007948;28;20559;-73
2023/06/13 10:00:35;;;;;;;10.82;5.07;;;;;;;25.11;54.50;100995.13;5010835;28;20132;-72
2023/06/13 10:03:03;;;;;;;11.65;5.07;;;;;;;25.19;52.06;101004.72;5002689;28;20076;-71
2023/06/13 10:05:46;;;;;;;9.35;5.00;;;;;;;25.20;48.54;100994.91;5006142;28;20053;-73
2023/06/13 10:08:13;;;;;;;13.43;5.22;;;;;;;25.21;48.06;100990.00;5012801;28;20049;-77
2023/06/13 10:10:40;;;;;;;13.07;4.80;;;;;;;25.36;48.47;100993.38;5005841;28;20046;-74
2023/06/13 10:13:15;;;;;;;13.57;5.18;;;;;;;25.44;49.38;101000.16;5015173;28;20050;-76
2023/06/13 10:15:50;;;;;;;11.32;5.07;;;;;;;25.39;46.97;100984.63;5007540;28;20058;-82
2023/06/13 10:18:20;;;;;;;12.02;5.20;;;;;;;25.58;46.76;100985.69;5009233;28;20132;-74
2023/06/13 10:20:48;;;;;;;13.63;4.72;;;;;;;25.66;46.96;100988.81;5009602;28;20042;-74
2023/06/13 10:23:18;;;;;;;12.65;4.85;;;;;;;25.71;46.14;100991.66;5010536;28;20054;-75
2023/06/13 10:25:50;;;;;;;8.60;4.70;;;;;;;25.76;45.81;100992.97;5011394;28;20504;-75
2023/06/13 10:28:47;;;;;;;11.25;4.72;;;;;;;25.60;45.22;100991.66;5011868;28;20057;-74
2023/06/13 10:31:26;;;;;;;10.35;4.85;;;;;;;25.72;46.29;100996.06;5010758;28;20100;-75
2023/06/13 10:34:34;;;;;;;12.05;4.82;;;;;;;25.95;47.56;100986.25;5010192;28;20050;-75
2023/06/13 10:37:19;;;;;;;8.20;5.05;;;;;;;26.08;45.35;100985.75;5004060;28;20053;-78
2023/06/13 10:40:05;;;;;;;11.63;5.47;;;;;;;26.06;45.09;100983.41;5026961;28;20076;-75
2023/06/13 10:42:54;;;;;;;11.05;4.55;;;;;;;26.02;46.82;100970.72;5008885;28;20049;-71
2023/06/13 10:45:24;;;;;;;13.38;5.05;;;;;;;26.19;45.95;100975.13;5021341;28;20491;-75
2023/06/13 10:47:51;;;;;;;11.35;5.32;;;;;;;26.34;45.88;100969.13;5011949;28;20045;-74
2023/06/13 10:50:20;;;;;;;11.30;5.18;;;;;;;26.38;45.86;100964.72;5011300;28;20487;-72
2023/06/13 10:52:48;;;;;;;11.63;5.43;;;;;;;26.48;44.74;100966.00;5010898;28;20046;-74
2023/06/13 10:55:27;;;;;;;11.55;5.78;;;;;;;26.61;46.33;100971.97;5017835;28;20081;-74
2023/06/13 10:58:05;;;;;;;16.20;5.00;;;;;;;26.53;44.84;100956.66;4994164;28;20089;-76
2023/06/13 11:00:37;;;;;;;10.20;5.07;;;;;;;26.62;45.92;100959.25;5012783;28;20128;-79
2023/06/13 11:03:07;;;;;;;10.68;5.20;;;;;;;26.86;47.50;100960.72;5013421;28;20046;-76
2023/06/13 11:05:36;;;;;;;10.60;4.82;;;;;;;27.03;46.37;100965.03;5007099;28;20061;-74
2023/06/13 11:08:16;;;;;;;11.13;5.38;;;;;;;27.11;45.66;100945.28;5019996;28;20053;-75
2023/06/13 11:10:44;;;;;;;9.43;5.25;;;;;;;27.20;44.50;100945.78;4993127;28;20042;-73
2023/06/13 11:13:30;;;;;;;13.57;5.35;;;;;;;27.32;43.43;100944.41;5008395;28;20076;-76
2023/06/13 11:16:17;;;;;;;9.98;4.53;;;;;;;27.56;42.97;100950.22;5012116;28;20046;-74
2023/06/13 11:18:47;;;;;;;13.73;5.93;;;;;;;27.65;42.75;100937.69;5004598;28;20175;-76
2023/06/13 11:21:14;;;;;;;10.57;5.20;;;;;;;27.80;42.58;100943.81;5013292;28;20056;-73